Pompton Lakes, NJ (07442)

1:04 AM EDT on May 27, 2015 (GMT -0400)
APRSWXNET | | Change Station
CLOSE
Current Station
Personal Weather Station
Location: Pompton Lakes, NJ
Elevation: 275 ft
Nearby Weather Stations

Elev 275 ft 41.01 °N, 74.27 °W | Updated 37 minutes ago

Partly Cloudy
Partly Cloudy
73 °F
Feels Like 74 °F
N
1
Wind Variable Wind from SE
Gusts 6.0 mph

Today
High -- | Low -- °F
--% Chance of Precip.
Yesterday
High -- | Low -- °F
Precip. -- in
5:30 AM 8:18 PM
Waxing Gibbous, 64% visible
Pressure 30.17 in
Visibility 10.0 miles
Clouds Few 4500 ft
Heat Index 74 °F
Dew Point 65 °F
Humidity 76%
Rainfall in
Snow Depth Not available.
UV 0 out of 12
Pollen 9.30 out of 12
Air Quality Not available.
Flu Activity Sporadic
METAR KCDW 270453Z AUTO 22004KT 10SM FEW045 23/17 A3016 RMK AO2 SLP215 T02280167 403110178 TSNO

More Conditions Fewer Conditions

Pressure 30.17 in
Visibility 10.0 miles
Clouds Few 4500 ft
Heat Index 74 °F
Dew Point 65 °F
Humidity 76%
Rainfall in
Snow Depth Not available.
UV 0 out of 12
Pollen 9.30 out of 12
Air Quality Not available.
Flu Activity Sporadic
METAR KCDW 270453Z AUTO 22004KT 10SM FEW045 23/17 A3016 RMK AO2 SLP215 T02280167 403110178 TSNO

More Conditions Fewer Conditions

10-Day Weather Forecast

Almanac

Astronomy

May. 27, 2015 Rise Set
Actual Time
Civil Twilight
Nautical Twilight
Astronomical Twilight
Moon
Length of Visible Light
Length of Day
Tomorrow will be .
, % of the Moon is Illuminated

Today's Extremes

State Highs State Lows

Community

WunderPhotos

Upload Photos

1,824,616 photos uploaded!

WunderBlogs® & News

Nearby

Air Quality

  Air Quality AQ Index Pollutant
Not available.

Snow Depth

Station Depth Elevation

Earthquake Activity

City Distance Mag. Time & Date
Minimum magnitude displayed is 2.5.

Coastal Water Temperatures

Place Temperature

Stations

Nearby Weather Stations

Station Location Temp. Windchill Dew Point Humidity Wind Precip. Elev Updated Type